sensor_id;sensor_type;location;lat;lon;timestamp;P1;durP1;ratioP1;P2;durP2;ratioP2
53781;SDS011;39692;53.114;7.060;2022-11-04T00:01:42;9.25;;;6.00;;
53781;SDS011;39692;53.114;7.060;2022-11-04T00:04:10;11.02;;;6.93;;
53781;SDS011;39692;53.114;7.060;2022-11-04T00:06:37;10.52;;;6.35;;
53781;SDS011;39692;53.114;7.060;2022-11-04T00:09:03;11.27;;;6.32;;
53781;SDS011;39692;53.114;7.060;2022-11-04T00:11:31;8.00;;;6.40;;
53781;SDS011;39692;53.114;7.060;2022-11-04T00:14:15;10.10;;;6.90;;
53781;SDS011;39692;53.114;7.060;2022-11-04T00:16:41;10.48;;;7.32;;
53781;SDS011;39692;53.114;7.060;2022-11-04T00:19:26;9.77;;;6.35;;
53781;SDS011;39692;53.114;7.060;2022-11-04T00:21:52;9.93;;;6.40;;
53781;SDS011;39692;53.114;7.060;2022-11-04T00:24:37;11.07;;;6.25;;
53781;SDS011;39692;53.114;7.060;2022-11-04T00:27:12;9.63;;;5.72;;
53781;SDS011;39692;53.114;7.060;2022-11-04T00:29:58;11.88;;;7.00;;
53781;SDS011;39692;53.114;7.060;2022-11-04T00:32:24;10.98;;;6.22;;
53781;SDS011;39692;53.114;7.060;2022-11-04T00:37:39;12.57;;;6.57;;
53781;SDS011;39692;53.114;7.060;2022-11-04T00:40:06;12.68;;;6.95;;
53781;SDS011;39692;53.114;7.060;2022-11-04T00:42:32;10.63;;;6.78;;
53781;SDS011;39692;53.114;7.060;2022-11-04T00:44:58;9.75;;;5.53;;
53781;SDS011;39692;53.114;7.060;2022-11-04T00:47:24;14.45;;;7.45;;
53781;SDS011;39692;53.114;7.060;2022-11-04T00:49:50;10.02;;;5.63;;
53781;SDS011;39692;53.114;7.060;2022-11-04T00:52:15;8.70;;;5.65;;
53781;SDS011;39692;53.114;7.060;2022-11-04T00:54:41;6.40;;;4.32;;
53781;SDS011;39692;53.114;7.060;2022-11-04T00:57:10;8.45;;;5.93;;
53781;SDS011;39692;53.114;7.060;2022-11-04T00:59:37;8.25;;;5.13;;
53781;SDS011;39692;53.114;7.060;2022-11-04T01:02:03;10.40;;;5.18;;
53781;SDS011;39692;53.114;7.060;2022-11-04T01:04:30;7.50;;;4.97;;
53781;SDS011;39692;53.114;7.060;2022-11-04T01:06:55;7.68;;;3.90;;
53781;SDS011;39692;53.114;7.060;2022-11-04T01:09:21;7.65;;;4.55;;
53781;SDS011;39692;53.114;7.060;2022-11-04T01:11:47;6.90;;;4.15;;
53781;SDS011;39692;53.114;7.060;2022-11-04T01:14:13;6.30;;;4.18;;
53781;SDS011;39692;53.114;7.060;2022-11-04T01:16:39;7.22;;;4.43;;
53781;SDS011;39692;53.114;7.060;2022-11-04T01:19:05;6.82;;;4.07;;
53781;SDS011;39692;53.114;7.060;2022-11-04T01:21:31;12.00;;;3.55;;
53781;SDS011;39692;53.114;7.060;2022-11-04T01:23:58;4.47;;;2.80;;
53781;SDS011;39692;53.114;7.060;2022-11-04T01:26:24;6.75;;;3.13;;
53781;SDS011;39692;53.114;7.060;2022-11-04T01:28:51;4.55;;;2.53;;
53781;SDS011;39692;53.114;7.060;2022-11-04T01:31:22;4.00;;;1.80;;
53781;SDS011;39692;53.114;7.060;2022-11-04T01:33:50;3.22;;;1.75;;
53781;SDS011;39692;53.114;7.060;2022-11-04T01:36:17;3.70;;;1.75;;
53781;SDS011;39692;53.114;7.060;2022-11-04T01:38:43;3.03;;;1.55;;
53781;SDS011;39692;53.114;7.060;2022-11-04T01:41:18;2.58;;;1.40;;
53781;SDS011;39692;53.114;7.060;2022-11-04T01:49:14;2.03;;;1.15;;
53781;SDS011;39692;53.114;7.060;2022-11-04T01:51:41;2.17;;;0.98;;
53781;SDS011;39692;53.114;7.060;2022-11-04T01:54:08;2.88;;;1.33;;
53781;SDS011;39692;53.114;7.060;2022-11-04T01:56:36;2.60;;;1.23;;
53781;SDS011;39692;53.114;7.060;2022-11-04T01:59:06;2.55;;;1.20;;
53781;SDS011;39692;53.114;7.060;2022-11-04T02:01:36;2.03;;;1.10;;
53781;SDS011;39692;53.114;7.060;2022-11-04T02:04:02;2.28;;;1.20;;
53781;SDS011;39692;53.114;7.060;2022-11-04T02:06:47;1.73;;;0.70;;
53781;SDS011;39692;53.114;7.060;2022-11-04T02:09:16;1.23;;;0.75;;
53781;SDS011;39692;53.114;7.060;2022-11-04T02:11:42;1.48;;;0.60;;
53781;SDS011;39692;53.114;7.060;2022-11-04T02:14:27;1.08;;;0.50;;
53781;SDS011;39692;53.114;7.060;2022-11-04T02:16:54;1.00;;;0.55;;
53781;SDS011;39692;53.114;7.060;2022-11-04T02:30:45;0.43;;;0.20;;
53781;SDS011;39692;53.114;7.060;2022-11-04T02:33:36;0.75;;;0.43;;
53781;SDS011;39692;53.114;7.060;2022-11-04T02:36:11;1.38;;;0.50;;
53781;SDS011;39692;53.114;7.060;2022-11-04T02:41:25;0.25;;;0.20;;
53781;SDS011;39692;53.114;7.060;2022-11-04T02:44:11;1.25;;;0.38;;
53781;SDS011;39692;53.114;7.060;2022-11-04T02:49:13;0.75;;;0.20;;
53781;SDS011;39692;53.114;7.060;2022-11-04T02:51:56;0.50;;;0.43;;
53781;SDS011;39692;53.114;7.060;2022-11-04T02:54:27;6.07;;;0.50;;
53781;SDS011;39692;53.114;7.060;2022-11-04T02:56:59;1.65;;;0.57;;
53781;SDS011;39692;53.114;7.060;2022-11-04T03:01:55;1.20;;;0.45;;
53781;SDS011;39692;53.114;7.060;2022-11-04T03:04:26;2.22;;;0.50;;
53781;SDS011;39692;53.114;7.060;2022-11-04T03:06:56;1.55;;;0.63;;
53781;SDS011;39692;53.114;7.060;2022-11-04T03:09:23;1.95;;;0.73;;
53781;SDS011;39692;53.114;7.060;2022-11-04T03:11:54;1.02;;;0.38;;
53781;SDS011;39692;53.114;7.060;2022-11-04T03:14:26;2.20;;;0.50;;
53781;SDS011;39692;53.114;7.060;2022-11-04T03:16:59;1.05;;;0.40;;
53781;SDS011;39692;53.114;7.060;2022-11-04T03:19:39;2.35;;;0.60;;
53781;SDS011;39692;53.114;7.060;2022-11-04T03:22:16;1.45;;;0.52;;
53781;SDS011;39692;53.114;7.060;2022-11-04T03:24:45;0.17;;;0.17;;
53781;SDS011;39692;53.114;7.060;2022-11-04T03:27:22;2.75;;;0.32;;
53781;SDS011;39692;53.114;7.060;2022-11-04T03:29:53;5.53;;;0.43;;
53781;SDS011;39692;53.114;7.060;2022-11-04T03:35:24;0.55;;;0.22;;
53781;SDS011;39692;53.114;7.060;2022-11-04T03:37:51;1.65;;;0.20;;
53781;SDS011;39692;53.114;7.060;2022-11-04T03:40:18;0.65;;;0.20;;
53781;SDS011;39692;53.114;7.060;2022-11-04T03:42:47;0.65;;;0.35;;
53781;SDS011;39692;53.114;7.060;2022-11-04T03:45:21;0.55;;;0.20;;
53781;SDS011;39692;53.114;7.060;2022-11-04T03:47:47;0.40;;;0.20;;
53781;SDS011;39692;53.114;7.060;2022-11-04T03:52:43;0.63;;;0.20;;
53781;SDS011;39692;53.114;7.060;2022-11-04T03:55:08;0.45;;;0.20;;
53781;SDS011;39692;53.114;7.060;2022-11-04T03:57:44;1.23;;;0.32;;
53781;SDS011;39692;53.114;7.060;2022-11-04T04:00:22;1.48;;;0.40;;
53781;SDS011;39692;53.114;7.060;2022-11-04T04:05:52;1.27;;;0.47;;
53781;SDS011;39692;53.114;7.060;2022-11-04T04:16:28;2.05;;;0.50;;
53781;SDS011;39692;53.114;7.060;2022-11-04T04:18:58;0.40;;;0.30;;
53781;SDS011;39692;53.114;7.060;2022-11-04T04:21:30;1.95;;;0.60;;
53781;SDS011;39692;53.114;7.060;2022-11-04T04:24:02;1.83;;;0.50;;
53781;SDS011;39692;53.114;7.060;2022-11-04T04:26:49;2.15;;;0.68;;
53781;SDS011;39692;53.114;7.060;2022-11-04T04:29:37;1.02;;;0.50;;
53781;SDS011;39692;53.114;7.060;2022-11-04T04:32:04;1.33;;;0.60;;
53781;SDS011;39692;53.114;7.060;2022-11-04T04:34:31;1.55;;;0.40;;
53781;SDS011;39692;53.114;7.060;2022-11-04T04:37:40;2.05;;;0.40;;
53781;SDS011;39692;53.114;7.060;2022-11-04T04:39:58;1.55;;;0.73;;
53781;SDS011;39692;53.114;7.060;2022-11-04T04:42:59;0.95;;;0.50;;
53781;SDS011;39692;53.114;7.060;2022-11-04T04:45:47;1.73;;;0.45;;
53781;SDS011;39692;53.114;7.060;2022-11-04T04:48:16;0.20;;;0.10;;
53781;SDS011;39692;53.114;7.060;2022-11-04T04:50:46;0.55;;;0.28;;
53781;SDS011;39692;53.114;7.060;2022-11-04T04:53:14;1.08;;;0.30;;
53781;SDS011;39692;53.114;7.060;2022-11-04T04:55:39;0.45;;;0.13;;
53781;SDS011;39692;53.114;7.060;2022-11-04T04:58:05;0.30;;;0.10;;
53781;SDS011;39692;53.114;7.060;2022-11-04T05:00:31;0.82;;;0.20;;
53781;SDS011;39692;53.114;7.060;2022-11-04T05:02:57;0.40;;;0.22;;
53781;SDS011;39692;53.114;7.060;2022-11-04T05:05:23;2.83;;;0.20;;
53781;SDS011;39692;53.114;7.060;2022-11-04T05:07:49;1.27;;;0.30;;
53781;SDS011;39692;53.114;7.060;2022-11-04T05:10:15;0.30;;;0.10;;
53781;SDS011;39692;53.114;7.060;2022-11-04T05:12:42;0.15;;;0.15;;
53781;SDS011;39692;53.114;7.060;2022-11-04T05:15:27;2.00;;;0.38;;
53781;SDS011;39692;53.114;7.060;2022-11-04T05:17:55;0.35;;;0.22;;
53781;SDS011;39692;53.114;7.060;2022-11-04T05:20:22;1.88;;;0.20;;
53781;SDS011;39692;53.114;7.060;2022-11-04T05:22:48;0.77;;;0.47;;
53781;SDS011;39692;53.114;7.060;2022-11-04T05:25:14;0.98;;;0.50;;
53781;SDS011;39692;53.114;7.060;2022-11-04T05:27:40;1.90;;;0.52;;
53781;SDS011;39692;53.114;7.060;2022-11-04T05:30:06;0.73;;;0.40;;
53781;SDS011;39692;53.114;7.060;2022-11-04T05:32:32;0.75;;;0.22;;
53781;SDS011;39692;53.114;7.060;2022-11-04T05:34:58;1.92;;;0.47;;
53781;SDS011;39692;53.114;7.060;2022-11-04T05:37:24;1.45;;;0.40;;
53781;SDS011;39692;53.114;7.060;2022-11-04T05:39:50;0.95;;;0.55;;
53781;SDS011;39692;53.114;7.060;2022-11-04T05:42:17;3.33;;;0.63;;
53781;SDS011;39692;53.114;7.060;2022-11-04T05:44:43;0.85;;;0.45;;
53781;SDS011;39692;53.114;7.060;2022-11-04T05:47:08;1.42;;;0.22;;
53781;SDS011;39692;53.114;7.060;2022-11-04T05:49:34;0.28;;;0.20;;
53781;SDS011;39692;53.114;7.060;2022-11-04T05:51:59;0.25;;;0.20;;
53781;SDS011;39692;53.114;7.060;2022-11-04T05:54:25;0.10;;;0.10;;
53781;SDS011;39692;53.114;7.060;2022-11-04T05:56:51;0.57;;;0.30;;
53781;SDS011;39692;53.114;7.060;2022-11-04T05:59:17;3.20;;;0.40;;
53781;SDS011;39692;53.114;7.060;2022-11-04T06:01:43;4.13;;;0.68;;
53781;SDS011;39692;53.114;7.060;2022-11-04T06:04:12;4.20;;;0.50;;
53781;SDS011;39692;53.114;7.060;2022-11-04T06:06:39;0.77;;;0.40;;
53781;SDS011;39692;53.114;7.060;2022-11-04T06:09:05;2.40;;;0.60;;
53781;SDS011;39692;53.114;7.060;2022-11-04T06:11:31;0.30;;;0.22;;
53781;SDS011;39692;53.114;7.060;2022-11-04T06:13:58;2.03;;;0.20;;
53781;SDS011;39692;53.114;7.060;2022-11-04T06:16:24;0.22;;;0.20;;
53781;SDS011;39692;53.114;7.060;2022-11-04T06:18:50;0.30;;;0.30;;
53781;SDS011;39692;53.114;7.060;2022-11-04T06:23:46;2.17;;;0.30;;
53781;SDS011;39692;53.114;7.060;2022-11-04T06:26:12;0.40;;;0.20;;
53781;SDS011;39692;53.114;7.060;2022-11-04T06:28:39;3.75;;;0.45;;
53781;SDS011;39692;53.114;7.060;2022-11-04T06:31:05;1.13;;;0.25;;
53781;SDS011;39692;53.114;7.060;2022-11-04T06:33:32;0.65;;;0.20;;
53781;SDS011;39692;53.114;7.060;2022-11-04T06:35:59;0.50;;;0.30;;
53781;SDS011;39692;53.114;7.060;2022-11-04T06:38:27;0.40;;;0.30;;
53781;SDS011;39692;53.114;7.060;2022-11-04T06:40:54;1.10;;;0.68;;
53781;SDS011;39692;53.114;7.060;2022-11-04T06:43:20;0.52;;;0.20;;
53781;SDS011;39692;53.114;7.060;2022-11-04T06:45:53;4.75;;;0.35;;
53781;SDS011;39692;53.114;7.060;2022-11-04T06:48:22;1.73;;;0.30;;
53781;SDS011;39692;53.114;7.060;2022-11-04T06:50:48;0.73;;;0.28;;
53781;SDS011;39692;53.114;7.060;2022-11-04T06:53:14;2.15;;;0.30;;
53781;SDS011;39692;53.114;7.060;2022-11-04T06:55:40;1.80;;;0.68;;
53781;SDS011;39692;53.114;7.060;2022-11-04T06:58:06;1.85;;;1.27;;
53781;SDS011;39692;53.114;7.060;2022-11-04T07:00:32;2.03;;;0.98;;
53781;SDS011;39692;53.114;7.060;2022-11-04T07:02:58;5.10;;;1.10;;
53781;SDS011;39692;53.114;7.060;2022-11-04T07:05:23;0.82;;;0.40;;
53781;SDS011;39692;53.114;7.060;2022-11-04T07:07:49;1.00;;;0.35;;
53781;SDS011;39692;53.114;7.060;2022-11-04T07:10:15;0.63;;;0.30;;
53781;SDS011;39692;53.114;7.060;2022-11-04T07:12:42;0.63;;;0.20;;
53781;SDS011;39692;53.114;7.060;2022-11-04T07:15:08;1.30;;;0.38;;
53781;SDS011;39692;53.114;7.060;2022-11-04T07:17:34;0.98;;;0.40;;
53781;SDS011;39692;53.114;7.060;2022-11-04T07:20:00;1.10;;;0.40;;
53781;SDS011;39692;53.114;7.060;2022-11-04T07:22:26;3.60;;;0.55;;
53781;SDS011;39692;53.114;7.060;2022-11-04T07:24:51;2.70;;;0.50;;
53781;SDS011;39692;53.114;7.060;2022-11-04T07:27:17;1.45;;;0.40;;
53781;SDS011;39692;53.114;7.060;2022-11-04T07:29:43;2.38;;;0.50;;
53781;SDS011;39692;53.114;7.060;2022-11-04T07:32:08;0.73;;;0.40;;
53781;SDS011;39692;53.114;7.060;2022-11-04T07:34:34;2.45;;;0.30;;
53781;SDS011;39692;53.114;7.060;2022-11-04T07:37:00;4.53;;;0.22;;
53781;SDS011;39692;53.114;7.060;2022-11-04T07:39:25;1.52;;;0.40;;
53781;SDS011;39692;53.114;7.060;2022-11-04T07:41:51;0.85;;;0.30;;
53781;SDS011;39692;53.114;7.060;2022-11-04T07:44:17;3.22;;;0.60;;
53781;SDS011;39692;53.114;7.060;2022-11-04T07:46:43;0.55;;;0.30;;
53781;SDS011;39692;53.114;7.060;2022-11-04T07:49:08;2.47;;;0.50;;
53781;SDS011;39692;53.114;7.060;2022-11-04T07:51:35;1.30;;;0.57;;
53781;SDS011;39692;53.114;7.060;2022-11-04T07:54:01;1.90;;;0.40;;
53781;SDS011;39692;53.114;7.060;2022-11-04T07:56:27;2.97;;;0.82;;
53781;SDS011;39692;53.114;7.060;2022-11-04T07:58:52;1.80;;;0.65;;
53781;SDS011;39692;53.114;7.060;2022-11-04T08:01:20;1.38;;;0.40;;
53781;SDS011;39692;53.114;7.060;2022-11-04T08:03:50;0.90;;;0.30;;
53781;SDS011;39692;53.114;7.060;2022-11-04T08:06:17;1.38;;;0.63;;
53781;SDS011;39692;53.114;7.060;2022-11-04T08:08:44;2.75;;;0.50;;
53781;SDS011;39692;53.114;7.060;2022-11-04T08:11:14;1.83;;;0.60;;
53781;SDS011;39692;53.114;7.060;2022-11-04T08:13:41;4.00;;;0.60;;
53781;SDS011;39692;53.114;7.060;2022-11-04T08:16:09;1.48;;;0.65;;
53781;SDS011;39692;53.114;7.060;2022-11-04T08:18:37;1.58;;;0.68;;
53781;SDS011;39692;53.114;7.060;2022-11-04T08:21:04;1.65;;;0.88;;
53781;SDS011;39692;53.114;7.060;2022-11-04T08:23:31;1.95;;;0.70;;
53781;SDS011;39692;53.114;7.060;2022-11-04T08:25:58;2.67;;;1.00;;
53781;SDS011;39692;53.114;7.060;2022-11-04T08:28:25;5.18;;;1.10;;
53781;SDS011;39692;53.114;7.060;2022-11-04T08:30:52;3.03;;;1.38;;
53781;SDS011;39692;53.114;7.060;2022-11-04T08:33:18;1.80;;;1.02;;
53781;SDS011;39692;53.114;7.060;2022-11-04T08:35:45;2.10;;;0.90;;
53781;SDS011;39692;53.114;7.060;2022-11-04T08:38:11;2.22;;;1.02;;
53781;SDS011;39692;53.114;7.060;2022-11-04T08:40:37;2.15;;;0.98;;
53781;SDS011;39692;53.114;7.060;2022-11-04T08:43:03;5.38;;;1.38;;
53781;SDS011;39692;53.114;7.060;2022-11-04T08:45:29;3.30;;;0.82;;
53781;SDS011;39692;53.114;7.060;2022-11-04T08:47:55;1.75;;;0.90;;
53781;SDS011;39692;53.114;7.060;2022-11-04T08:50:21;2.03;;;0.75;;
53781;SDS011;39692;53.114;7.060;2022-11-04T08:52:52;3.42;;;0.90;;
53781;SDS011;39692;53.114;7.060;2022-11-04T08:55:18;2.70;;;1.02;;
53781;SDS011;39692;53.114;7.060;2022-11-04T08:57:44;3.38;;;0.77;;
53781;SDS011;39692;53.114;7.060;2022-11-04T09:00:11;3.25;;;0.98;;
53781;SDS011;39692;53.114;7.060;2022-11-04T09:02:37;2.50;;;0.80;;
53781;SDS011;39692;53.114;7.060;2022-11-04T09:05:04;4.07;;;0.98;;
53781;SDS011;39692;53.114;7.060;2022-11-04T09:07:31;1.55;;;0.70;;
53781;SDS011;39692;53.114;7.060;2022-11-04T09:09:59;2.88;;;0.90;;
53781;SDS011;39692;53.114;7.060;2022-11-04T09:12:26;2.78;;;0.60;;
53781;SDS011;39692;53.114;7.060;2022-11-04T09:14:52;3.28;;;1.05;;
53781;SDS011;39692;53.114;7.060;2022-11-04T09:17:19;2.78;;;0.80;;
53781;SDS011;39692;53.114;7.060;2022-11-04T09:19:45;3.05;;;0.70;;
53781;SDS011;39692;53.114;7.060;2022-11-04T09:22:11;1.58;;;0.80;;
53781;SDS011;39692;53.114;7.060;2022-11-04T09:24:37;4.05;;;0.82;;
53781;SDS011;39692;53.114;7.060;2022-11-04T09:27:03;1.90;;;0.70;;
53781;SDS011;39692;53.114;7.060;2022-11-04T09:29:30;1.45;;;0.60;;
53781;SDS011;39692;53.114;7.060;2022-11-04T09:31:58;2.83;;;0.75;;
53781;SDS011;39692;53.114;7.060;2022-11-04T09:34:24;2.55;;;0.93;;
53781;SDS011;39692;53.114;7.060;2022-11-04T09:36:53;1.83;;;0.60;;
53781;SDS011;39692;53.114;7.060;2022-11-04T09:39:19;2.90;;;0.85;;
53781;SDS011;39692;53.114;7.060;2022-11-04T09:41:50;3.63;;;0.77;;
53781;SDS011;39692;53.114;7.060;2022-11-04T09:47:06;2.55;;;0.70;;
53781;SDS011;39692;53.114;7.060;2022-11-04T09:49:35;2.75;;;0.45;;
53781;SDS011;39692;53.114;7.060;2022-11-04T09:52:05;1.70;;;0.50;;
53781;SDS011;39692;53.114;7.060;2022-11-04T09:54:34;2.55;;;0.90;;
53781;SDS011;39692;53.114;7.060;2022-11-04T09:57:01;2.13;;;0.80;;
53781;SDS011;39692;53.114;7.060;2022-11-04T09:59:28;2.17;;;0.73;;
53781;SDS011;39692;53.114;7.060;2022-11-04T10:09:59;2.63;;;0.65;;
53781;SDS011;39692;53.114;7.060;2022-11-04T10:13:13;4.43;;;0.95;;
53781;SDS011;39692;53.114;7.060;2022-11-04T10:23:45;2.55;;;0.73;;
53781;SDS011;39692;53.114;7.060;2022-11-04T10:29:07;3.65;;;0.82;;
53781;SDS011;39692;53.114;7.060;2022-11-04T10:31:36;1.63;;;0.80;;
53781;SDS011;39692;53.114;7.060;2022-11-04T10:34:04;2.97;;;1.13;;
53781;SDS011;39692;53.114;7.060;2022-11-04T10:36:33;2.75;;;0.73;;
53781;SDS011;39692;53.114;7.060;2022-11-04T10:39:01;2.42;;;1.02;;
53781;SDS011;39692;53.114;7.060;2022-11-04T10:41:37;2.65;;;0.80;;
53781;SDS011;39692;53.114;7.060;2022-11-04T10:51:43;2.45;;;0.93;;
53781;SDS011;39692;53.114;7.060;2022-11-04T10:54:10;3.80;;;1.10;;
53781;SDS011;39692;53.114;7.060;2022-11-04T10:56:40;3.03;;;1.40;;
53781;SDS011;39692;53.114;7.060;2022-11-04T11:01:52;4.03;;;1.17;;
53781;SDS011;39692;53.114;7.060;2022-11-04T11:04:24;3.50;;;0.95;;
53781;SDS011;39692;53.114;7.060;2022-11-04T11:07:12;3.55;;;0.90;;
53781;SDS011;39692;53.114;7.060;2022-11-04T11:14:44;3.35;;;0.95;;
53781;SDS011;39692;53.114;7.060;2022-11-04T11:20:17;2.92;;;1.05;;
53781;SDS011;39692;53.114;7.060;2022-11-04T11:22:44;2.28;;;0.90;;
53781;SDS011;39692;53.114;7.060;2022-11-04T11:27:59;2.90;;;1.20;;
53781;SDS011;39692;53.114;7.060;2022-11-04T11:33:19;5.60;;;1.70;;
53781;SDS011;39692;53.114;7.060;2022-11-04T11:35:48;3.70;;;1.20;;
53781;SDS011;39692;53.114;7.060;2022-11-04T11:38:21;4.72;;;1.55;;
53781;SDS011;39692;53.114;7.060;2022-11-04T11:41:08;3.22;;;1.42;;
53781;SDS011;39692;53.114;7.060;2022-11-04T11:43:37;3.78;;;1.27;;
53781;SDS011;39692;53.114;7.060;2022-11-04T11:46:06;5.15;;;1.23;;
53781;SDS011;39692;53.114;7.060;2022-11-04T11:48:40;5.07;;;1.30;;
53781;SDS011;39692;53.114;7.060;2022-11-04T11:51:11;3.38;;;1.23;;
53781;SDS011;39692;53.114;7.060;2022-11-04T11:53:38;5.13;;;1.38;;
53781;SDS011;39692;53.114;7.060;2022-11-04T11:56:27;2.95;;;1.10;;
53781;SDS011;39692;53.114;7.060;2022-11-04T12:01:57;3.38;;;1.33;;
53781;SDS011;39692;53.114;7.060;2022-11-04T12:04:43;2.83;;;1.33;;
53781;SDS011;39692;53.114;7.060;2022-11-04T12:13:18;3.42;;;1.60;;
53781;SDS011;39692;53.114;7.060;2022-11-04T12:23:50;3.92;;;1.80;;
53781;SDS011;39692;53.114;7.060;2022-11-04T12:29:20;4.40;;;1.45;;
53781;SDS011;39692;53.114;7.060;2022-11-04T12:34:45;6.95;;;1.80;;
53781;SDS011;39692;53.114;7.060;2022-11-04T12:37:50;4.25;;;1.60;;
53781;SDS011;39692;53.114;7.060;2022-11-04T12:40:20;3.50;;;1.42;;
53781;SDS011;39692;53.114;7.060;2022-11-04T12:52:09;2.85;;;0.60;;
53781;SDS011;39692;53.114;7.060;2022-11-04T12:57:51;2.22;;;0.50;;
53781;SDS011;39692;53.114;7.060;2022-11-04T13:00:22;2.47;;;0.60;;
53781;SDS011;39692;53.114;7.060;2022-11-04T13:02:55;0.65;;;0.40;;
53781;SDS011;39692;53.114;7.060;2022-11-04T13:10:30;0.95;;;0.40;;
53781;SDS011;39692;53.114;7.060;2022-11-04T13:12:58;1.10;;;0.50;;
53781;SDS011;39692;53.114;7.060;2022-11-04T13:15:27;2.65;;;0.50;;
53781;SDS011;39692;53.114;7.060;2022-11-04T13:17:59;1.48;;;0.43;;
53781;SDS011;39692;53.114;7.060;2022-11-04T13:20:31;2.05;;;0.77;;
53781;SDS011;39692;53.114;7.060;2022-11-04T13:23:11;2.83;;;0.70;;
53781;SDS011;39692;53.114;7.060;2022-11-04T13:25:45;3.45;;;0.90;;
53781;SDS011;39692;53.114;7.060;2022-11-04T13:28:15;3.72;;;0.73;;
53781;SDS011;39692;53.114;7.060;2022-11-04T13:31:01;2.13;;;0.50;;
53781;SDS011;39692;53.114;7.060;2022-11-04T13:38:43;4.43;;;0.80;;
53781;SDS011;39692;53.114;7.060;2022-11-04T13:44:25;4.88;;;1.50;;
53781;SDS011;39692;53.114;7.060;2022-11-04T13:46:53;5.72;;;1.77;;
53781;SDS011;39692;53.114;7.060;2022-11-04T13:49:23;8.68;;;1.95;;
53781;SDS011;39692;53.114;7.060;2022-11-04T13:52:13;10.23;;;2.25;;
53781;SDS011;39692;53.114;7.060;2022-11-04T13:54:58;7.30;;;2.13;;
53781;SDS011;39692;53.114;7.060;2022-11-04T13:57:27;8.55;;;1.58;;
53781;SDS011;39692;53.114;7.060;2022-11-04T14:02:46;5.00;;;1.52;;
53781;SDS011;39692;53.114;7.060;2022-11-04T14:23:39;7.32;;;1.05;;
53781;SDS011;39692;53.114;7.060;2022-11-04T14:26:08;3.45;;;1.27;;
53781;SDS011;39692;53.114;7.060;2022-11-04T14:28:35;4.13;;;0.73;;
53781;SDS011;39692;53.114;7.060;2022-11-04T14:31:06;2.85;;;0.70;;
53781;SDS011;39692;53.114;7.060;2022-11-04T14:33:36;2.25;;;0.68;;
53781;SDS011;39692;53.114;7.060;2022-11-04T14:44:37;2.15;;;0.75;;
53781;SDS011;39692;53.114;7.060;2022-11-04T14:54:48;4.65;;;1.13;;
53781;SDS011;39692;53.114;7.060;2022-11-04T14:57:40;1.60;;;0.95;;
53781;SDS011;39692;53.114;7.060;2022-11-04T15:05:48;5.43;;;1.27;;
53781;SDS011;39692;53.114;7.060;2022-11-04T15:13:35;2.35;;;0.80;;
53781;SDS011;39692;53.114;7.060;2022-11-04T15:16:04;2.50;;;0.77;;
53781;SDS011;39692;53.114;7.060;2022-11-04T15:18:36;2.75;;;1.00;;
53781;SDS011;39692;53.114;7.060;2022-11-04T15:21:05;2.67;;;0.73;;
53781;SDS011;39692;53.114;7.060;2022-11-04T15:23:38;5.75;;;1.02;;
53781;SDS011;39692;53.114;7.060;2022-11-04T15:26:05;2.05;;;0.68;;
53781;SDS011;39692;53.114;7.060;2022-11-04T15:28:35;2.53;;;0.90;;
53781;SDS011;39692;53.114;7.060;2022-11-04T15:33:43;2.35;;;0.82;;
53781;SDS011;39692;53.114;7.060;2022-11-04T15:38:48;4.18;;;0.82;;
53781;SDS011;39692;53.114;7.060;2022-11-04T15:41:21;2.63;;;0.80;;
53781;SDS011;39692;53.114;7.060;2022-11-04T15:44:14;4.47;;;0.70;;
53781;SDS011;39692;53.114;7.060;2022-11-04T15:46:49;2.17;;;0.90;;
53781;SDS011;39692;53.114;7.060;2022-11-04T15:49:20;4.30;;;1.33;;
53781;SDS011;39692;53.114;7.060;2022-11-04T15:51:57;3.22;;;1.00;;
53781;SDS011;39692;53.114;7.060;2022-11-04T15:56:57;1.55;;;0.93;;
53781;SDS011;39692;53.114;7.060;2022-11-04T15:59:31;2.60;;;0.82;;
53781;SDS011;39692;53.114;7.060;2022-11-04T16:01:59;5.90;;;1.35;;
53781;SDS011;39692;53.114;7.060;2022-11-04T16:04:27;3.67;;;1.38;;
53781;SDS011;39692;53.114;7.060;2022-11-04T16:07:05;6.15;;;1.30;;
53781;SDS011;39692;53.114;7.060;2022-11-04T16:09:52;5.38;;;2.30;;
53781;SDS011;39692;53.114;7.060;2022-11-04T16:12:28;3.65;;;1.33;;
53781;SDS011;39692;53.114;7.060;2022-11-04T16:15:00;2.40;;;0.85;;
53781;SDS011;39692;53.114;7.060;2022-11-04T16:17:27;3.75;;;1.63;;
53781;SDS011;39692;53.114;7.060;2022-11-04T16:19:58;1.60;;;1.00;;
53781;SDS011;39692;53.114;7.060;2022-11-04T16:22:30;1.85;;;0.85;;
53781;SDS011;39692;53.114;7.060;2022-11-04T16:24:59;4.15;;;1.58;;
53781;SDS011;39692;53.114;7.060;2022-11-04T16:27:29;3.97;;;1.60;;
53781;SDS011;39692;53.114;7.060;2022-11-04T16:30:40;2.10;;;1.00;;
53781;SDS011;39692;53.114;7.060;2022-11-04T16:32:51;4.47;;;1.33;;
53781;SDS011;39692;53.114;7.060;2022-11-04T16:35:22;4.22;;;1.48;;
53781;SDS011;39692;53.114;7.060;2022-11-04T16:37:53;3.10;;;1.50;;
53781;SDS011;39692;53.114;7.060;2022-11-04T16:40:23;3.83;;;2.15;;
53781;SDS011;39692;53.114;7.060;2022-11-04T16:42:49;4.32;;;2.08;;
53781;SDS011;39692;53.114;7.060;2022-11-04T16:45:24;5.40;;;1.88;;
53781;SDS011;39692;53.114;7.060;2022-11-04T16:47:52;4.03;;;2.33;;
53781;SDS011;39692;53.114;7.060;2022-11-04T16:50:18;3.00;;;1.80;;
53781;SDS011;39692;53.114;7.060;2022-11-04T16:52:45;5.10;;;2.40;;
53781;SDS011;39692;53.114;7.060;2022-11-04T16:55:11;5.28;;;1.77;;
53781;SDS011;39692;53.114;7.060;2022-11-04T16:57:38;6.88;;;2.72;;
53781;SDS011;39692;53.114;7.060;2022-11-04T17:00:05;3.17;;;1.98;;
53781;SDS011;39692;53.114;7.060;2022-11-04T17:02:32;5.32;;;2.17;;
53781;SDS011;39692;53.114;7.060;2022-11-04T17:05:01;2.78;;;1.10;;
53781;SDS011;39692;53.114;7.060;2022-11-04T17:07:28;5.18;;;1.67;;
53781;SDS011;39692;53.114;7.060;2022-11-04T17:09:54;7.40;;;1.98;;
53781;SDS011;39692;53.114;7.060;2022-11-04T17:12:20;3.05;;;1.27;;
53781;SDS011;39692;53.114;7.060;2022-11-04T17:14:46;5.60;;;1.42;;
53781;SDS011;39692;53.114;7.060;2022-11-04T17:17:12;8.57;;;2.03;;
53781;SDS011;39692;53.114;7.060;2022-11-04T17:19:39;3.13;;;1.30;;
53781;SDS011;39692;53.114;7.060;2022-11-04T17:22:06;7.75;;;1.80;;
53781;SDS011;39692;53.114;7.060;2022-11-04T17:24:33;2.10;;;1.23;;
53781;SDS011;39692;53.114;7.060;2022-11-04T17:26:59;4.80;;;1.30;;
53781;SDS011;39692;53.114;7.060;2022-11-04T17:29:25;3.70;;;1.42;;
53781;SDS011;39692;53.114;7.060;2022-11-04T17:31:50;3.50;;;1.80;;
53781;SDS011;39692;53.114;7.060;2022-11-04T17:34:19;5.47;;;2.08;;
53781;SDS011;39692;53.114;7.060;2022-11-04T17:36:50;2.45;;;1.30;;
53781;SDS011;39692;53.114;7.060;2022-11-04T17:39:17;8.10;;;2.35;;
53781;SDS011;39692;53.114;7.060;2022-11-04T17:41:42;5.60;;;2.28;;
53781;SDS011;39692;53.114;7.060;2022-11-04T17:44:26;10.03;;;3.50;;
53781;SDS011;39692;53.114;7.060;2022-11-04T17:46:52;10.68;;;2.22;;
53781;SDS011;39692;53.114;7.060;2022-11-04T17:49:22;7.43;;;2.45;;
53781;SDS011;39692;53.114;7.060;2022-11-04T17:51:50;3.95;;;1.88;;
53781;SDS011;39692;53.114;7.060;2022-11-04T17:54:18;4.43;;;1.70;;
53781;SDS011;39692;53.114;7.060;2022-11-04T17:56:45;5.60;;;2.38;;
53781;SDS011;39692;53.114;7.060;2022-11-04T17:59:11;5.78;;;2.17;;
53781;SDS011;39692;53.114;7.060;2022-11-04T18:01:38;5.13;;;1.73;;
53781;SDS011;39692;53.114;7.060;2022-11-04T18:04:04;6.32;;;2.20;;
53781;SDS011;39692;53.114;7.060;2022-11-04T18:06:32;4.65;;;1.98;;
53781;SDS011;39692;53.114;7.060;2022-11-04T18:08:59;7.07;;;2.38;;
53781;SDS011;39692;53.114;7.060;2022-11-04T18:11:26;3.42;;;1.98;;
53781;SDS011;39692;53.114;7.060;2022-11-04T18:14:11;5.07;;;2.28;;
53781;SDS011;39692;53.114;7.060;2022-11-04T18:16:39;7.95;;;2.28;;
53781;SDS011;39692;53.114;7.060;2022-11-04T18:19:06;11.82;;;2.53;;
53781;SDS011;39692;53.114;7.060;2022-11-04T18:21:32;6.20;;;2.22;;